Niagara District Airport
CYSN : now visible

Airfield :











YOU CAN JOIN US ON...

 
LOGIN :

Register | Disclaimer

   EN    FR    IT 

 









Legend :    VFR   Marginal VFR   IFR   Intensive IFR   Very Intensive IFR
Visi :
Ceiling :
>= 8 km
>= 3000ft
5 to 8 km
1000 to 3000 ft
1500m to 5 km
500 to 1000 ft
800 to 1500m
200 to 500 ft
< 800m
< 200 ft
Symbols :   Thunderstorms  Fog  Heavy snow  Heavy precipitations  Wind > 20 kt






- Airport Elevation : 321 ft
- IATA code : YCM


CYSN - Niagara District

CURRENT METAR :
  • 250000Z 07008KT 9SM -RA OVC061 02/02 A3003 RMK SC8 SLP173

EXPIRED METARs :
  • 242300Z 06005KT 9SM -RA OVC057 02/01 A3005 RMK SC8 SLP181
  • 242200Z 04005KT 9SM -RA SCT068 OVC077 03/M00 A3006 RMK AC4AC4 SLP185
  • 242135Z 05005KT 8SM -RA OVC070 03/M01 A3007 RMK AC8 SLP190

TAF TAF CYSN
Valid from the 24 at 20:00 until the 25 at 02:00 UTC


241938Z 2420/2502 10005KT P6SM BKN090 OVC200
FM242200 10010KT P6SM -RA BKN030 OVC060
TEMPO 2422/2502 4SM -RA BR OVC020 RMK NXT FCST WILL BE ISSUED AT 251345Z



MET'MAP, your aeronautical weather chart ! - Copyright ORBIFLY December 2007 - Disclaimer

ORBIFLY MET'MAP TEAM :

Programming & Development : Alexandra Zaïnal
Concept & original design : Baudouin d'Aumeries
Assistance for programming : Marc-Olivier Méhu
Technical & hardware support : Manuel Goepfert

Contact : metmap@orbifly.com




SOURCES & CREDITS :

   NOAA       Earth
Advisory